createdAt,value
2016-12-09T00:00:13.754Z,-0.75
2016-12-09T00:00:36.478Z,-0.72
2016-12-09T00:01:01.017Z,-0.67
2016-12-09T00:01:28.396Z,-0.65
2016-12-09T00:02:16.596Z,-0.62
2016-12-09T00:02:47.857Z,-0.63
2016-12-09T00:03:09.573Z,-0.69
2016-12-09T00:04:12.095Z,-0.80
2016-12-09T00:04:36.879Z,-0.87
2016-12-09T00:05:29.143Z,-0.95
2016-12-09T00:05:50.847Z,-0.93
2016-12-09T00:06:12.572Z,-0.92
2016-12-09T00:06:38.878Z,-0.91
2016-12-09T00:08:09.182Z,-0.63
2016-12-09T00:08:37.672Z,-0.57
2016-12-09T00:09:28.861Z,-0.54
2016-12-09T00:11:08.479Z,-0.52
2016-12-09T00:11:35.970Z,-0.51
2016-12-09T00:12:02.460Z,-0.52
2016-12-09T00:12:52.669Z,-0.53
2016-12-09T00:13:19.161Z,-0.55
2016-12-09T00:13:48.537Z,-0.61
2016-12-09T00:14:15.028Z,-0.66
2016-12-09T00:14:45.321Z,-0.72
2016-12-09T00:15:09.620Z,-0.70
2016-12-09T00:15:37.207Z,-0.68
2016-12-09T00:15:59.916Z,-0.69
2016-12-09T00:16:21.639Z,-0.69
2016-12-09T00:16:44.353Z,-0.70
2016-12-09T00:17:37.187Z,-0.70
2016-12-09T00:18:08.444Z,-0.69
2016-12-09T00:18:30.211Z,-0.66
2016-12-09T00:18:51.928Z,-0.63
2016-12-09T00:19:42.126Z,-0.75
2016-12-09T00:21:19.614Z,-0.86
2016-12-09T00:22:22.594Z,-0.88
2016-12-09T00:23:25.819Z,-0.92
2016-12-09T00:23:47.532Z,-0.92
2016-12-09T00:24:15.038Z,-0.91
2016-12-09T00:25:16.060Z,-0.92
2016-12-09T00:25:42.551Z,-0.92
2016-12-09T00:26:16.796Z,-0.92
2016-12-09T00:27:14.548Z,-0.92
2016-12-09T00:28:39.236Z,-0.95
2016-12-09T00:29:00.957Z,-0.93
2016-12-09T00:29:53.940Z,-0.92
2016-12-09T00:30:25.199Z,-0.98
2016-12-09T00:30:52.687Z,-0.99
2016-12-09T00:31:18.993Z,-1.02
2016-12-09T00:31:48.328Z,-1.06
2016-12-09T00:32:15.811Z,-1.04
2016-12-09T00:32:42.339Z,-0.90
2016-12-09T00:33:16.459Z,-0.81
2016-12-09T00:33:42.958Z,-0.81
2016-12-09T00:34:04.681Z,-0.87
2016-12-09T00:35:04.991Z,-0.87
2016-12-09T00:35:40.652Z,-0.83
2016-12-09T00:37:45.773Z,-0.85
2016-12-09T00:38:12.271Z,-0.82
2016-12-09T00:38:43.533Z,-0.78
2016-12-09T00:39:10.030Z,-0.75
2016-12-09T00:39:32.745Z,-0.81
2016-12-09T00:40:20.976Z,-0.88
2016-12-09T00:41:15.672Z,-0.75
2016-12-09T00:41:38.394Z,-0.77
2016-12-09T00:43:05.165Z,-0.76
2016-12-09T00:44:28.265Z,-0.57
2016-12-09T00:44:49.997Z,-0.55
2016-12-09T00:45:16.485Z,-0.52
2016-12-09T00:45:43.978Z,-0.50
2016-12-09T00:46:05.720Z,-0.49
2016-12-09T00:47:20.415Z,-0.37
2016-12-09T00:48:25.381Z,-0.35
2016-12-09T00:48:51.866Z,-0.36
2016-12-09T00:49:13.579Z,-0.38
2016-12-09T00:49:40.072Z,-0.35
2016-12-09T00:50:06.564Z,-0.36
2016-12-09T00:51:00.564Z,-0.31
2016-12-09T00:51:54.553Z,-0.26
2016-12-09T00:52:21.042Z,-0.29
2016-12-09T00:52:51.124Z,-0.27
2016-12-09T00:53:18.613Z,-0.26
2016-12-09T00:53:50.348Z,-0.25
2016-12-09T00:54:12.075Z,-0.25
2016-12-09T00:54:33.787Z,-0.23
2016-12-09T00:54:55.504Z,-0.22
2016-12-09T00:55:18.216Z,-0.22
2016-12-09T00:55:40.941Z,-0.21
2016-12-09T00:56:03.658Z,-0.23
2016-12-09T00:56:28.385Z,-0.23
2016-12-09T00:56:50.160Z,-0.25
2016-12-09T00:57:16.656Z,-0.24
2016-12-09T00:57:38.378Z,-0.21
2016-12-09T00:58:07.529Z,-0.21
2016-12-09T00:59:22.233Z,-0.21
2016-12-09T01:00:20.312Z,-0.17
2016-12-09T01:00:44.572Z,-0.23
2016-12-09T01:01:47.358Z,-0.19
2016-12-09T01:02:13.856Z,-0.16
2016-12-09T01:02:35.581Z,-0.17
2016-12-09T01:03:01.881Z,-0.23
2016-12-09T01:03:31.312Z,-0.24
2016-12-09T01:03:56.665Z,-0.23
2016-12-09T01:04:25.503Z,-0.26
2016-12-09T01:04:52.341Z,-0.24
2016-12-09T01:05:14.057Z,-0.22
2016-12-09T01:05:38.433Z,-0.22
2016-12-09T01:06:07.850Z,-0.22
2016-12-09T01:06:30.595Z,-0.21
2016-12-09T01:06:52.317Z,-0.20
2016-12-09T01:07:17.855Z,-0.21
2016-12-09T01:07:44.358Z,-0.19
2016-12-09T01:08:37.145Z,-0.22
2016-12-09T01:10:08.483Z,-0.12
2016-12-09T01:10:57.690Z,-0.10
2016-12-09T01:11:20.410Z,-0.10
2016-12-09T01:11:43.137Z,-0.07
2016-12-09T01:12:34.014Z,-0.06
2016-12-09T01:13:02.515Z,-0.05
2016-12-09T01:13:31.809Z,-0.07
2016-12-09T01:13:58.600Z,-0.06
2016-12-09T01:14:22.936Z,-0.05
2016-12-09T01:14:49.267Z,-0.06
2016-12-09T01:15:10.994Z,-0.06
2016-12-09T01:15:33.727Z,-0.04
2016-12-09T01:16:55.784Z,-0.04
2016-12-09T01:17:22.273Z,-0.06
2016-12-09T01:17:46.768Z,-0.04
2016-12-09T01:18:19.033Z,-0.03
2016-12-09T01:18:45.515Z,0.01
2016-12-09T01:19:16.782Z,-0.01
2016-12-09T01:19:43.281Z,-0.02
2016-12-09T01:20:36.468Z,-0.05
2016-12-09T01:21:27.304Z,0.03
2016-12-09T01:21:49.021Z,0.05
2016-12-09T01:22:52.544Z,0.02
2016-12-09T01:23:45.359Z,0.01
2016-12-09T01:24:11.840Z,0.03
2016-12-09T01:24:33.564Z,0.05
2016-12-09T01:26:02.806Z,0.10
2016-12-09T01:26:24.537Z,0.10
2016-12-09T01:26:48.971Z,0.10
2016-12-09T01:27:17.845Z,0.10
2016-12-09T01:27:45.204Z,0.09
2016-12-09T01:28:09.510Z,0.09
2016-12-09T01:28:31.231Z,0.05
2016-12-09T01:28:55.692Z,0.06
2016-12-09T01:29:17.432Z,0.08
2016-12-09T01:29:41.142Z,0.10
2016-12-09T01:30:02.887Z,0.10
2016-12-09T01:30:35.004Z,0.12
2016-12-09T01:31:00.301Z,0.14
2016-12-09T01:31:29.721Z,0.13
2016-12-09T01:31:51.448Z,0.12
2016-12-09T01:32:13.164Z,0.14
2016-12-09T01:32:35.878Z,0.14
2016-12-09T01:33:07.139Z,0.14
2016-12-09T01:34:04.710Z,0.17
2016-12-09T01:34:31.203Z,0.15
2016-12-09T01:35:50.656Z,0.16
2016-12-09T01:36:39.852Z,0.13
2016-12-09T01:37:01.579Z,0.13
2016-12-09T01:37:28.077Z,0.13
2016-12-09T01:37:49.813Z,0.14
2016-12-09T01:38:11.544Z,0.14
2016-12-09T01:38:38.076Z,0.13
2016-12-09T01:39:01.798Z,0.14
2016-12-09T01:39:28.294Z,0.14
2016-12-09T01:39:50.009Z,0.15
2016-12-09T01:40:12.750Z,0.14
2016-12-09T01:40:35.472Z,0.14
2016-12-09T01:40:57.206Z,0.17
2016-12-09T01:41:18.943Z,0.16
2016-12-09T01:41:40.659Z,0.18
2016-12-09T01:42:03.384Z,0.18
2016-12-09T01:42:29.875Z,0.17
2016-12-09T01:42:56.372Z,0.16
2016-12-09T01:43:18.091Z,0.16
2016-12-09T01:43:40.828Z,0.15
2016-12-09T01:44:03.565Z,0.15
2016-12-09T01:44:26.291Z,0.17
2016-12-09T01:44:48.010Z,0.17
2016-12-09T01:45:10.749Z,0.17
2016-12-09T01:45:32.487Z,0.16
2016-12-09T01:45:54.201Z,0.15
2016-12-09T01:46:15.908Z,0.15
2016-12-09T01:46:42.401Z,0.15
2016-12-09T01:47:04.115Z,0.15
2016-12-09T01:47:29.347Z,0.16
2016-12-09T01:48:49.476Z,0.16
2016-12-09T01:49:12.190Z,0.15
2016-12-09T01:49:34.926Z,0.16
2016-12-09T01:49:56.638Z,0.17
2016-12-09T01:50:18.361Z,0.18
2016-12-09T01:50:40.087Z,0.17
2016-12-09T01:51:06.576Z,0.16
2016-12-09T01:51:35.845Z,0.15
2016-12-09T01:52:00.095Z,0.15
2016-12-09T01:52:24.502Z,0.16
2016-12-09T01:52:46.279Z,0.16
2016-12-09T01:53:07.992Z,0.16
2016-12-09T01:53:32.451Z,0.18
2016-12-09T01:53:54.157Z,0.21
2016-12-09T01:54:18.600Z,0.21
2016-12-09T01:54:45.082Z,0.20
2016-12-09T01:55:17.379Z,0.22
2016-12-09T01:55:43.867Z,0.21
2016-12-09T01:56:10.362Z,0.21
2016-12-09T01:56:34.915Z,0.24
2016-12-09T01:57:43.180Z,0.27
2016-12-09T01:58:04.901Z,0.27
2016-12-09T01:58:26.634Z,0.24
2016-12-09T01:58:57.891Z,0.22
2016-12-09T01:59:19.603Z,0.19
2016-12-09T01:59:43.918Z,0.20
2016-12-09T02:01:15.882Z,0.24
2016-12-09T02:01:37.627Z,0.22
2016-12-09T02:02:04.113Z,0.22
2016-12-09T02:02:29.514Z,0.22
2016-12-09T02:02:56.996Z,0.23
2016-12-09T02:03:18.721Z,0.23
2016-12-09T02:03:43.031Z,0.24
2016-12-09T02:04:07.449Z,0.24
2016-12-09T02:04:29.261Z,0.24
2016-12-09T02:04:51.018Z,0.25
2016-12-09T02:05:17.537Z,0.23
2016-12-09T02:06:12.664Z,0.23
2016-12-09T02:06:42.028Z,0.22
2016-12-09T02:07:08.525Z,0.21
2016-12-09T02:07:37.722Z,0.25
2016-12-09T02:08:02.055Z,0.26
2016-12-09T02:08:23.769Z,0.26
2016-12-09T02:08:45.495Z,0.25
2016-12-09T02:09:11.990Z,0.26
2016-12-09T02:10:13.013Z,0.25
2016-12-09T02:10:34.722Z,0.25
2016-12-09T02:11:31.325Z,0.30
2016-12-09T02:11:57.839Z,0.27
2016-12-09T02:12:27.270Z,0.28
2016-12-09T02:12:58.538Z,0.27
2016-12-09T02:13:29.819Z,0.30
2016-12-09T02:13:56.747Z,0.31
2016-12-09T02:14:18.479Z,0.31
2016-12-09T02:14:40.197Z,0.32
2016-12-09T02:15:04.709Z,0.31
2016-12-09T02:15:34.080Z,0.32
2016-12-09T02:16:05.474Z,0.34
2016-12-09T02:16:27.194Z,0.33
2016-12-09T02:16:48.902Z,0.33
2016-12-09T02:17:10.613Z,0.33
2016-12-09T02:17:35.267Z,0.36
2016-12-09T02:17:57.140Z,0.37
2016-12-09T02:18:18.859Z,0.37
2016-12-09T02:18:40.580Z,0.40
2016-12-09T02:19:09.771Z,0.40
2016-12-09T02:19:31.495Z,0.42
2016-12-09T02:19:55.749Z,0.43
2016-12-09T02:20:24.614Z,0.43
2016-12-09T02:20:54.006Z,0.43
2016-12-09T02:21:20.315Z,0.44
2016-12-09T02:21:46.819Z,0.45
2016-12-09T02:22:13.307Z,0.47
2016-12-09T02:22:35.019Z,0.45
2016-12-09T02:23:00.271Z,0.46
2016-12-09T02:23:24.533Z,0.45
2016-12-09T02:23:46.261Z,0.45
2016-12-09T02:24:13.750Z,0.46
2016-12-09T02:24:41.095Z,0.48
2016-12-09T02:26:13.784Z,0.50
2016-12-09T02:27:16.039Z,0.53
2016-12-09T02:27:47.391Z,0.51
2016-12-09T02:28:14.879Z,0.54
2016-12-09T02:29:33.495Z,0.55
2016-12-09T02:29:56.239Z,0.55
2016-12-09T02:30:47.015Z,0.54
2016-12-09T02:31:18.086Z,0.55
2016-12-09T02:31:45.577Z,0.55
2016-12-09T02:33:05.046Z,0.59
2016-12-09T02:34:08.200Z,0.59
2016-12-09T02:34:34.705Z,0.60
2016-12-09T02:35:01.181Z,0.59
2016-12-09T02:35:32.448Z,0.58
2016-12-09T02:36:23.402Z,0.57
2016-12-09T02:36:48.797Z,0.59
2016-12-09T02:37:15.668Z,0.58
2016-12-09T02:37:39.987Z,0.59
2016-12-09T02:38:04.317Z,0.58
2016-12-09T02:38:27.041Z,0.59
2016-12-09T02:38:54.371Z,0.57
2016-12-09T02:39:16.092Z,0.59
2016-12-09T02:39:40.635Z,0.59
2016-12-09T02:40:02.346Z,0.55
2016-12-09T02:41:13.671Z,0.54
2016-12-09T02:41:40.162Z,0.54
2016-12-09T02:42:01.881Z,0.56
2016-12-09T02:42:28.375Z,0.56
2016-12-09T02:42:59.637Z,0.57
2016-12-09T02:43:21.372Z,0.57
2016-12-09T02:44:48.791Z,0.61
2016-12-09T02:45:13.035Z,0.60
2016-12-09T02:45:34.763Z,0.57
2016-12-09T02:45:56.469Z,0.57
2016-12-09T02:46:20.942Z,0.59
2016-12-09T02:46:45.351Z,0.58
2016-12-09T02:47:07.071Z,0.58
2016-12-09T02:47:33.558Z,0.58
2016-12-09T02:47:56.268Z,0.57
2016-12-09T02:48:17.985Z,0.56
2016-12-09T02:48:39.696Z,0.56
2016-12-09T02:49:01.408Z,0.56
2016-12-09T02:49:23.117Z,0.58
2016-12-09T02:50:13.868Z,0.58
2016-12-09T02:51:09.512Z,0.56
2016-12-09T02:51:31.232Z,0.58
2016-12-09T02:51:52.951Z,0.57
2016-12-09T02:52:48.638Z,0.59
2016-12-09T02:54:08.099Z,0.61
2016-12-09T02:54:32.403Z,0.60
2016-12-09T02:54:56.692Z,0.61
2016-12-09T02:55:24.176Z,0.63
2016-12-09T02:55:45.900Z,0.61
2016-12-09T02:56:12.386Z,0.61
2016-12-09T02:56:34.095Z,0.62
2016-12-09T02:57:00.403Z,0.63
2016-12-09T02:57:31.660Z,0.64
2016-12-09T02:58:29.439Z,0.67
2016-12-09T02:59:20.253Z,0.69
2016-12-09T02:59:42.956Z,0.67
2016-12-09T03:00:09.432Z,0.73
2016-12-09T03:00:43.421Z,0.76
2016-12-09T03:01:12.739Z,0.81
2016-12-09T03:01:44.013Z,0.84
2016-12-09T03:03:17.259Z,0.83
2016-12-09T03:03:48.517Z,0.83
2016-12-09T03:04:14.999Z,0.85
2016-12-09T03:05:07.756Z,0.83
2016-12-09T03:05:56.794Z,0.82
2016-12-09T03:06:23.300Z,0.86
2016-12-09T03:07:21.697Z,0.97
2016-12-09T03:08:40.974Z,0.97
2016-12-09T03:09:05.494Z,0.99
2016-12-09T03:09:36.546Z,1.00
2016-12-09T03:10:12.590Z,0.95
2016-12-09T03:10:39.435Z,0.97
2016-12-09T03:11:44.584Z,0.96
2016-12-09T03:12:11.087Z,0.95
2016-12-09T03:13:08.834Z,1.05
2016-12-09T03:13:31.574Z,1.06
2016-12-09T03:15:28.479Z,1.08
2016-12-09T03:15:55.007Z,1.20
2016-12-09T03:16:24.213Z,1.23
2016-12-09T03:17:33.310Z,1.19
2016-12-09T03:18:44.759Z,1.21
2016-12-09T03:19:11.261Z,1.19
2016-12-09T03:19:32.979Z,1.21
2016-12-09T03:20:02.319Z,1.24
2016-12-09T03:21:11.618Z,1.27
2016-12-09T03:21:39.114Z,1.23
2016-12-09T03:22:39.750Z,1.21
2016-12-09T03:23:04.055Z,1.20
2016-12-09T03:23:31.541Z,1.24
2016-12-09T03:23:58.035Z,1.24
2016-12-09T03:24:24.531Z,1.26
2016-12-09T03:25:25.090Z,1.22
2016-12-09T03:26:24.645Z,1.21
2016-12-09T03:27:58.274Z,1.21
2016-12-09T03:29:06.577Z,1.21
2016-12-09T03:29:29.812Z,1.25
2016-12-09T03:30:27.565Z,1.25
2016-12-09T03:30:56.050Z,1.24
2016-12-09T03:31:24.559Z,1.22
2016-12-09T03:31:49.206Z,1.27
2016-12-09T03:32:44.831Z,1.30
2016-12-09T03:33:36.632Z,1.33
2016-12-09T03:33:59.354Z,1.32
2016-12-09T03:34:21.078Z,1.32
2016-12-09T03:35:12.980Z,1.34
2016-12-09T03:35:42.374Z,1.33
2016-12-09T03:36:05.097Z,1.36
2016-12-09T03:37:04.857Z,1.28
2016-12-09T03:37:31.338Z,1.25
2016-12-09T03:37:53.058Z,1.21
2016-12-09T03:38:15.767Z,1.20
2016-12-09T03:38:48.021Z,1.20
2016-12-09T03:39:56.123Z,1.17
2016-12-09T03:40:56.553Z,1.19
2016-12-09T03:41:44.574Z,1.23
2016-12-09T03:42:06.288Z,1.27
2016-12-09T03:42:28.999Z,1.28
2016-12-09T03:43:04.841Z,1.21
2016-12-09T03:43:31.345Z,1.21
2016-12-09T03:43:53.063Z,1.21
2016-12-09T03:44:47.874Z,1.22
2016-12-09T03:45:09.592Z,1.23
2016-12-09T03:45:36.077Z,1.22
2016-12-09T03:46:04.198Z,1.24
2016-12-09T03:46:38.067Z,1.34
2016-12-09T03:47:00.794Z,1.32
2016-12-09T03:47:22.587Z,1.32
2016-12-09T03:47:44.309Z,1.33
2016-12-09T03:48:42.076Z,1.32
2016-12-09T03:49:04.810Z,1.28
2016-12-09T03:49:32.314Z,1.31
2016-12-09T03:50:21.501Z,1.28
2016-12-09T03:50:43.228Z,1.26
2016-12-09T03:51:04.951Z,1.26
2016-12-09T03:51:57.948Z,1.31
2016-12-09T03:52:24.429Z,1.46
2016-12-09T03:52:48.748Z,1.47
2016-12-09T03:53:15.230Z,1.43
2016-12-09T03:53:44.524Z,1.44
2016-12-09T03:54:12.006Z,1.42
2016-12-09T03:54:33.725Z,1.39
2016-12-09T03:55:24.853Z,1.56
2016-12-09T03:55:52.341Z,1.61
2016-12-09T03:56:23.598Z,1.57
2016-12-09T03:57:19.201Z,1.53
2016-12-09T03:57:41.918Z,1.54
2016-12-09T03:58:03.629Z,1.55
2016-12-09T03:58:26.362Z,1.55
2016-12-09T03:58:48.076Z,1.54
2016-12-09T03:59:09.805Z,1.51
2016-12-09T03:59:36.294Z,1.48
2016-12-09T04:00:02.791Z,1.46
2016-12-09T04:00:55.779Z,1.53
2016-12-09T04:01:21.277Z,1.52
2016-12-09T04:01:42.999Z,1.52
2016-12-09T04:02:09.494Z,1.49
2016-12-09T04:02:31.204Z,1.51
2016-12-09T04:02:52.934Z,1.49
2016-12-09T04:03:41.145Z,1.54
2016-12-09T04:04:02.868Z,1.55
2016-12-09T04:04:24.592Z,1.57
2016-12-09T04:04:48.839Z,1.59
2016-12-09T04:05:13.109Z,1.59
2016-12-09T04:05:40.992Z,1.61
2016-12-09T04:06:03.701Z,1.62
2016-12-09T04:06:26.417Z,1.64
2016-12-09T04:06:48.140Z,1.67
2016-12-09T04:07:09.848Z,1.71
2016-12-09T04:07:31.576Z,1.72
2016-12-09T04:07:53.281Z,1.67
2016-12-09T04:08:42.488Z,1.69
2016-12-09T04:09:37.463Z,1.68
2016-12-09T04:10:35.224Z,1.77
2016-12-09T04:10:59.904Z,1.87
2016-12-09T04:11:30.357Z,1.86
2016-12-09T04:11:53.072Z,1.80
2016-12-09T04:12:14.799Z,1.80
2016-12-09T04:12:36.509Z,1.78
2016-12-09T04:12:59.233Z,1.74
2016-12-09T04:13:20.940Z,1.79
2016-12-09T04:13:43.664Z,1.81
2016-12-09T04:14:08.058Z,1.82
2016-12-09T04:14:34.548Z,1.84
2016-12-09T04:15:01.037Z,1.86
2016-12-09T04:16:47.995Z,1.99
2016-12-09T04:17:53.009Z,1.92
2016-12-09T04:18:14.742Z,2.00
2016-12-09T04:18:41.254Z,1.97
2016-12-09T04:19:02.971Z,1.96
2016-12-09T04:19:29.460Z,1.89
2016-12-09T04:19:51.184Z,1.93
2016-12-09T04:20:17.712Z,1.93
2016-12-09T04:20:39.432Z,2.02
2016-12-09T04:21:05.927Z,1.98
2016-12-09T04:21:32.488Z,1.95
2016-12-09T04:21:55.193Z,1.95
2016-12-09T04:22:16.901Z,1.98
2016-12-09T04:23:09.014Z,2.12
2016-12-09T04:23:40.285Z,2.16
2016-12-09T04:24:28.490Z,2.17
2016-12-09T04:24:50.206Z,2.16
2016-12-09T04:25:11.920Z,2.17
2016-12-09T04:25:33.633Z,2.12
2016-12-09T04:25:56.351Z,2.14
2016-12-09T04:26:18.066Z,2.13
2016-12-09T04:27:32.817Z,2.27
2016-12-09T04:27:54.534Z,2.24
2016-12-09T04:28:17.255Z,2.17
2016-12-09T04:29:23.315Z,2.17
2016-12-09T04:29:45.025Z,2.14
2016-12-09T04:30:39.016Z,2.37
2016-12-09T04:31:01.732Z,2.38
2016-12-09T04:31:26.085Z,2.22
2016-12-09T04:31:47.802Z,2.26
2016-12-09T04:32:09.505Z,2.29
2016-12-09T04:32:32.225Z,2.23
2016-12-09T04:32:53.938Z,2.29
2016-12-09T04:33:23.208Z,2.22
2016-12-09T04:33:50.690Z,2.21
2016-12-09T04:34:13.400Z,2.21
2016-12-09T04:34:35.127Z,2.14
2016-12-09T04:34:56.835Z,2.12
2016-12-09T04:35:18.548Z,2.17
2016-12-09T04:35:40.269Z,2.17
2016-12-09T04:36:02.986Z,2.31
2016-12-09T04:36:58.765Z,2.29
2016-12-09T04:37:24.077Z,2.35
2016-12-09T04:37:55.390Z,2.46
2016-12-09T04:38:22.876Z,2.48
2016-12-09T04:38:44.597Z,2.49
2016-12-09T04:39:06.456Z,2.43
2016-12-09T04:39:37.723Z,2.46
2016-12-09T04:39:59.446Z,2.52
2016-12-09T04:40:22.164Z,2.54
2016-12-09T04:40:48.653Z,2.60
2016-12-09T04:41:19.917Z,2.58
2016-12-09T04:41:41.712Z,2.44
2016-12-09T04:42:03.644Z,2.39
2016-12-09T04:42:25.391Z,2.40
2016-12-09T04:42:49.712Z,2.39
2016-12-09T04:43:11.455Z,2.38
2016-12-09T04:44:11.007Z,2.27
2016-12-09T04:44:37.325Z,2.34
2016-12-09T04:45:31.416Z,2.32
2016-12-09T04:46:19.662Z,2.43
2016-12-09T04:47:10.763Z,2.48
2016-12-09T04:47:58.982Z,2.59
2016-12-09T04:48:21.723Z,2.59
2016-12-09T04:48:43.433Z,2.63
2016-12-09T04:49:32.654Z,2.64
2016-12-09T04:50:03.923Z,2.54
2016-12-09T04:50:28.537Z,2.52
2016-12-09T04:50:50.260Z,2.59
2016-12-09T04:51:21.527Z,2.75
2016-12-09T04:51:46.091Z,2.79
2016-12-09T04:52:07.825Z,2.69
2016-12-09T04:52:34.317Z,2.69
2016-12-09T04:52:57.035Z,2.67
2016-12-09T04:53:23.356Z,2.65
2016-12-09T04:54:23.223Z,2.67
2016-12-09T04:55:18.773Z,2.61
2016-12-09T04:55:43.300Z,2.74
2016-12-09T04:56:36.774Z,2.83
2016-12-09T04:57:03.092Z,2.74
2016-12-09T04:57:32.229Z,2.81
2016-12-09T04:57:53.947Z,2.73
2016-12-09T04:58:20.433Z,2.67
2016-12-09T04:58:42.158Z,2.79
2016-12-09T04:59:06.592Z,2.77
2016-12-09T04:59:31.930Z,2.86
2016-12-09T05:00:03.006Z,2.77
2016-12-09T05:00:58.674Z,2.74
2016-12-09T05:01:34.704Z,2.75
2016-12-09T05:02:28.172Z,2.72
2016-12-09T05:02:52.499Z,2.69
2016-12-09T05:03:14.228Z,2.66
2016-12-09T05:03:43.690Z,2.82
2016-12-09T05:04:38.308Z,2.66
2016-12-09T05:05:38.651Z,2.69
2016-12-09T05:06:05.141Z,2.66
2016-12-09T05:06:26.856Z,2.77
2016-12-09T05:06:48.570Z,2.70
2016-12-09T05:07:10.278Z,2.76
2016-12-09T05:07:31.985Z,2.78
2016-12-09T05:07:56.652Z,2.80
2016-12-09T05:08:18.371Z,2.87
2016-12-09T05:08:42.805Z,2.80
2016-12-09T05:09:14.065Z,2.76
2016-12-09T05:09:35.789Z,2.70
2016-12-09T05:09:58.507Z,2.69
2016-12-09T05:11:06.104Z,2.74
2016-12-09T05:11:30.494Z,2.73
2016-12-09T05:11:56.790Z,2.96
2016-12-09T05:13:01.031Z,2.73
2016-12-09T05:13:22.762Z,2.63
2016-12-09T05:13:44.487Z,2.64
2016-12-09T05:14:14.853Z,2.79
2016-12-09T05:14:36.584Z,2.80
2016-12-09T05:14:59.337Z,2.73
2016-12-09T05:15:25.855Z,2.80
2016-12-09T05:15:52.338Z,2.71
2016-12-09T05:16:16.621Z,2.71
2016-12-09T05:16:44.107Z,2.76
2016-12-09T05:17:10.412Z,2.76
2016-12-09T05:17:32.131Z,2.84
2016-12-09T05:18:01.495Z,2.89
2016-12-09T05:18:27.986Z,2.80
2016-12-09T05:18:49.709Z,2.86
2016-12-09T05:19:11.437Z,2.85
2016-12-09T05:19:33.169Z,2.87
2016-12-09T05:19:59.665Z,2.90
2016-12-09T05:20:22.399Z,2.90
2016-12-09T05:20:52.421Z,2.94
2016-12-09T05:21:18.919Z,2.93
2016-12-09T05:22:15.813Z,2.86
2016-12-09T05:22:37.539Z,2.79
2016-12-09T05:23:04.021Z,2.75
2016-12-09T05:23:28.487Z,2.89
2016-12-09T05:23:54.973Z,2.87
2016-12-09T05:24:19.678Z,2.80
2016-12-09T05:24:46.183Z,2.80
2016-12-09T05:25:08.917Z,2.72
2016-12-09T05:26:02.988Z,2.74
2016-12-09T05:26:24.708Z,2.68
2016-12-09T05:26:51.215Z,2.67
2016-12-09T05:27:15.615Z,2.86
2016-12-09T05:27:37.347Z,2.82
2016-12-09T05:28:25.556Z,2.77
2016-12-09T05:28:47.275Z,2.72
2016-12-09T05:29:08.992Z,2.66
2016-12-09T05:29:30.714Z,2.69
2016-12-09T05:29:53.450Z,2.87
2016-12-09T05:30:15.192Z,2.89
2016-12-09T05:30:36.921Z,2.82
2016-12-09T05:30:58.646Z,2.79
2016-12-09T05:31:20.385Z,2.70
2016-12-09T05:31:42.115Z,2.75
2016-12-09T05:32:30.327Z,2.74
2016-12-09T05:32:57.169Z,2.85
2016-12-09T05:33:18.886Z,2.78
2016-12-09T05:33:40.601Z,2.90
2016-12-09T05:34:28.813Z,3.11
2016-12-09T05:34:51.565Z,3.03
2016-12-09T05:35:14.298Z,2.91
2016-12-09T05:35:36.011Z,2.89
2016-12-09T05:36:24.221Z,2.78
2016-12-09T05:36:45.942Z,2.75
2016-12-09T05:37:07.665Z,2.80
2016-12-09T05:37:33.973Z,2.90
2016-12-09T05:37:58.567Z,2.86
2016-12-09T05:38:52.563Z,2.70
2016-12-09T05:39:14.287Z,2.65
2016-12-09T05:39:36.020Z,2.74
2016-12-09T05:40:34.274Z,2.90
2016-12-09T05:40:56.008Z,2.87
2016-12-09T05:41:17.726Z,3.01
2016-12-09T05:41:39.465Z,3.06
2016-12-09T05:42:01.178Z,2.99
2016-12-09T05:42:22.893Z,2.98
2016-12-09T05:42:49.379Z,3.03
2016-12-09T05:43:12.109Z,3.04
2016-12-09T05:43:33.840Z,3.05
2016-12-09T05:44:03.220Z,2.94
2016-12-09T05:44:30.719Z,2.98
2016-12-09T05:44:52.449Z,3.00
2016-12-09T05:45:45.435Z,2.83
2016-12-09T05:46:09.184Z,2.84
2016-12-09T05:46:58.468Z,2.95
2016-12-09T05:47:20.226Z,3.02
2016-12-09T05:47:41.945Z,3.03
2016-12-09T05:48:11.190Z,3.02
2016-12-09T05:48:35.463Z,2.99
2016-12-09T05:48:57.180Z,3.11
2016-12-09T05:49:18.921Z,3.13
2016-12-09T05:49:45.420Z,3.15
2016-12-09T05:50:07.151Z,3.06
2016-12-09T05:50:28.886Z,3.08
2016-12-09T05:50:50.600Z,3.13
2016-12-09T05:51:15.303Z,3.03
2016-12-09T05:51:41.800Z,3.05
2016-12-09T05:52:08.291Z,3.04
2016-12-09T05:52:30.013Z,3.01
2016-12-09T05:52:54.680Z,2.97
2016-12-09T05:53:23.173Z,2.95
2016-12-09T05:53:52.645Z,3.05
2016-12-09T05:54:17.219Z,3.07
2016-12-09T05:54:39.932Z,3.01
2016-12-09T05:55:01.654Z,2.99
2016-12-09T05:55:28.153Z,2.98
2016-12-09T05:55:54.646Z,3.05
2016-12-09T05:56:57.166Z,2.92
2016-12-09T05:57:24.667Z,2.89
2016-12-09T05:57:54.157Z,2.85
2016-12-09T05:58:29.045Z,2.89
2016-12-09T05:58:50.775Z,3.03
2016-12-09T05:59:17.107Z,3.09
2016-12-09T05:59:38.832Z,3.04
2016-12-09T06:00:14.676Z,2.96
2016-12-09T06:00:45.765Z,3.13
2016-12-09T06:02:44.769Z,3.17
2016-12-09T06:03:06.485Z,3.08
2016-12-09T06:03:28.215Z,2.99
2016-12-09T06:03:49.967Z,3.00
2016-12-09T06:04:11.683Z,3.00
2016-12-09T06:04:59.893Z,3.09
2016-12-09T06:05:23.620Z,2.99
2016-12-09T06:05:45.360Z,2.94
2016-12-09T06:06:07.093Z,3.02
2016-12-09T06:06:28.825Z,3.02
2016-12-09T06:06:50.547Z,3.12
2016-12-09T06:07:12.267Z,3.06
2016-12-09T06:07:34.008Z,3.00
2016-12-09T06:07:55.727Z,2.99
2016-12-09T06:08:17.444Z,2.94
2016-12-09T06:08:39.186Z,2.93
2016-12-09T06:09:00.927Z,2.88
2016-12-09T06:09:22.646Z,2.87
2016-12-09T06:09:44.373Z,2.95
2016-12-09T06:10:10.866Z,3.06
2016-12-09T06:10:32.593Z,3.15
2016-12-09T06:10:54.302Z,3.20
2016-12-09T06:11:17.031Z,3.14
2016-12-09T06:11:38.808Z,3.07
2016-12-09T06:12:00.537Z,3.02
2016-12-09T06:12:23.318Z,3.02
2016-12-09T06:12:45.037Z,3.02
2016-12-09T06:13:06.754Z,3.08
2016-12-09T06:13:28.481Z,3.16
2016-12-09T06:13:54.980Z,3.25
2016-12-09T06:14:16.711Z,3.28
2016-12-09T06:14:41.357Z,3.20
2016-12-09T06:15:03.087Z,3.21
2016-12-09T06:15:24.803Z,3.12
2016-12-09T06:15:46.530Z,3.00
2016-12-09T06:16:08.259Z,3.00
2016-12-09T06:16:30.983Z,3.02
2016-12-09T06:16:52.714Z,2.96
2016-12-09T06:17:14.442Z,2.98
2016-12-09T06:17:36.165Z,2.94
2016-12-09T06:18:02.654Z,2.94
2016-12-09T06:18:24.396Z,2.96
2016-12-09T06:18:46.115Z,2.90
2016-12-09T06:19:07.853Z,2.94
2016-12-09T06:19:29.572Z,2.91
2016-12-09T06:20:17.798Z,2.99
2016-12-09T06:20:39.521Z,2.97
2016-12-09T06:21:01.246Z,2.98
2016-12-09T06:21:22.959Z,2.94
2016-12-09T06:21:45.699Z,2.92
2016-12-09T06:22:07.410Z,2.88
2016-12-09T06:22:29.133Z,2.85
2016-12-09T06:22:50.855Z,2.95
2016-12-09T06:23:12.577Z,3.04
2016-12-09T06:23:34.302Z,3.13
2016-12-09T06:23:56.046Z,3.19
2016-12-09T06:24:22.538Z,3.07
2016-12-09T06:24:44.252Z,3.01
2016-12-09T06:25:05.988Z,2.94
2016-12-09T06:25:32.479Z,2.98
2016-12-09T06:25:54.205Z,2.92
2016-12-09T06:26:15.925Z,3.09
2016-12-09T06:26:37.659Z,3.14
2016-12-09T06:26:59.394Z,3.12
2016-12-09T06:27:21.133Z,3.11
2016-12-09T06:27:47.626Z,3.12
2016-12-09T06:28:09.366Z,3.18
2016-12-09T06:28:35.856Z,3.17
2016-12-09T06:28:57.589Z,3.15
2016-12-09T06:29:19.321Z,3.05
2016-12-09T06:29:41.039Z,3.04
2016-12-09T06:30:03.874Z,3.00
2016-12-09T06:30:25.587Z,2.96
2016-12-09T06:30:47.316Z,3.00
2016-12-09T06:31:09.055Z,3.04
2016-12-09T06:31:30.786Z,3.04
2016-12-09T06:31:52.503Z,3.06
2016-12-09T06:32:14.242Z,3.11
2016-12-09T06:32:35.965Z,3.19
2016-12-09T06:32:57.700Z,3.16
2016-12-09T06:33:19.456Z,3.09
2016-12-09T06:33:45.979Z,3.18
2016-12-09T06:34:12.512Z,3.17
2016-12-09T06:34:34.270Z,3.21
2016-12-09T06:34:56.027Z,3.23
2016-12-09T06:35:20.865Z,3.18
2016-12-09T06:35:42.599Z,3.14
2016-12-09T06:36:04.336Z,3.09
2016-12-09T06:36:26.051Z,3.13
2016-12-09T06:36:56.609Z,3.16
2016-12-09T06:37:23.467Z,3.10
2016-12-09T06:37:45.190Z,3.14
2016-12-09T06:38:06.922Z,3.28
2016-12-09T06:38:28.654Z,3.27
2016-12-09T06:38:55.148Z,3.24
2016-12-09T06:39:26.425Z,3.23
2016-12-09T06:39:50.382Z,3.19
2016-12-09T06:40:12.127Z,3.25
2016-12-09T06:40:33.870Z,3.23
2016-12-09T06:41:26.968Z,3.14
2016-12-09T06:41:48.692Z,3.20
2016-12-09T06:42:10.467Z,3.34
2016-12-09T06:42:32.195Z,3.34
2016-12-09T06:42:53.919Z,3.29
2016-12-09T06:43:20.435Z,3.27
2016-12-09T06:43:42.164Z,3.30
2016-12-09T06:44:03.895Z,3.24
2016-12-09T06:44:25.664Z,3.19
2016-12-09T06:44:47.392Z,3.19
2016-12-09T06:45:11.728Z,3.15
2016-12-09T06:45:33.464Z,3.25
2016-12-09T06:45:59.965Z,3.35
2016-12-09T06:46:21.707Z,3.37
2016-12-09T06:46:43.436Z,3.45
2016-12-09T06:47:05.185Z,3.57
2016-12-09T06:47:27.909Z,3.55
2016-12-09T06:47:50.659Z,3.42
2016-12-09T06:48:38.890Z,3.39
2016-12-09T06:49:00.622Z,3.51
2016-12-09T06:49:22.359Z,3.55
2016-12-09T06:49:44.083Z,3.64
2016-12-09T06:50:06.815Z,3.62
2016-12-09T06:50:28.539Z,3.61
2016-12-09T06:50:50.292Z,3.53